Airfield :
LOGIN :

Register | Disclaimer

   EN    FR    IT 

 










Legend :    VFR   Marginal VFR   IFR   Intensive IFR   Very Intensive IFR
Visi :
Ceiling :
>= 8 km
>= 3000ft
5 to 8 km
1000 to 3000 ft
1500m to 5 km
500 to 1000 ft
800 to 1500m
200 to 500 ft
< 800m
< 200 ft
Symbols :   Thunderstorms  Fog  Heavy snow  Heavy precipitations  Wind > 20 kt
SIGMETs :     Misc.  Thunderstorms  Icing  Turbulence  Mountain Waves  Volcanic Ashes






- Airport Elevation : 84 ft


LFBC - Cazaux

CURRENT METAR :
  • 200830Z AUTO 34007KT 300V360 9999 // BKN005 OVC044 09/08 Q1030

EXPIRED METARs :
  • 200800Z AUTO 33008KT 9999 // SCT006 BKN018 BKN025 09/09 Q1030
  • 200730Z AUTO 28005KT 240V310 9999 // FEW008 SCT012 BKN019 10/09 Q1030
  • 200700Z AUTO 28006KT 9999 // BKN014 BKN022 OVC027 10/09 Q1030
  • 200630Z AUTO 27007KT 9999 // BKN014 BKN020 OVC026 10/09 Q1030
  • 200600Z AUTO 28007KT 9999 // SCT011 BKN019 OVC058 10/09 Q1030

TAF AMD TAF LFBC
Valid from the 20 at 05:00 until the 21 at 03:00 UTC


200550Z 2005/2103 28005KT 9999 FEW004 SCT012 BKN025
TEMPO 2006/2012 4000 DZ BKN003 BKN014
BECMG 2012/2014 BKN015
BECMG 2019/2021 CAVOK



MET'MAP, your aeronautical weather chart ! - Copyright ORBIFLY December 2007 - Disclaimer

ORBIFLY MET'MAP TEAM :

Programming & Development : Alexandra Zaïnal
Concept & original design : Baudouin d'Aumeries
Assistance for programming : Marc-Olivier Méhu
Technical & hardware support : Manuel Goepfert

Contact : metmap@orbifly.com




SOURCES & CREDITS :

   NOAA